Tiempo atmosférico en la estación meteorológica de Llimiana, Lleida (515 m.)



Fecha
DESCASC
Temp. máxima en grados centígrados (hora)
DESCASC
Temp. mínima en grados centígrados (hora)
DESCASC
Temp. media en grados centígrados
DESCASC
Racha de viento máxima en m/sg (hora)
DESCASC
Velocidad máxima media en intervalos de 10 minutos(hora)
DESCASC
Precipitaciones diarias en mm
DESCASC
Precipitaciones de 00:00 a 06:00 en mm
DESCASC
Precipitaciones de 06:00 a 12:00 en mm
DESCASC
Precipitaciones de 12:00 a 18:00 en mm
DESCASC
Precipitaciones de 18:00 a 24:00 en mm
DESCASC
19-09-2019 30.1 (16:50) 15.9 (08:00) 23 8.06 (19:00) 4.44 (14:50) 4.4 0 0 0 4.4
18-09-2019 31.4 (15:10) 15.5 (07:20) 23.4 8.61 (14:40) 5 (16:10) 0 0 0 0 0
17-09-2019 32.6 (16:30) 14.9 (00:00) 23.7 8.33 (18:20) 4.44 (18:20) 0 0 0 0 0
16-09-2019 31.1 (15:20) 13.9 (00:00) 22.5 8.06 (17:10) 4.17 (14:10) 0 0 0 0 0
15-09-2019 30.4 (16:00) 15.4 (00:00) 22.9 8.06 (16:30) 3.61 (17:40) 5 5 0 0 0
14-09-2019 30.1 (14:50) 13.2 (00:00) 21.7 9.72 (22:00) 5.83 (22:10) 13.6 0.2 0.2 0 13.2
13-09-2019 28.9 (18:00) 12.6 (00:00) 20.8 11.39 (14:30) 4.17 (14:30) 0.4 0 0 0 0.4
12-09-2019 32.1 (17:40) 11.1 (00:00) 21.6 9.72 (19:20) 5.28 (19:20) 0 0 0 0 0
11-09-2019 27.6 (15:50) 13.9 (00:00) 20.8 7.78 (02:30) 3.61 (03:00) 0 0 0 0 0
10-09-2019 20.6 (00:00) 12.9 (06:30) 16.8 7.5 (16:00) 4.17 (05:30) 10.2 8.8 0.2 0.8 0.4
09-09-2019 28.1 (16:10) 10.4 (07:20) 19.3 10 (20:40) 5 (20:50) 0 0 0 0 0
08-09-2019 27.4 (17:20) 9 (00:00) 18.2 9.17 (15:00) 5.28 (15:00) 0 0 0 0 0
07-09-2019 26.9 (16:40) 8.4 (00:00) 17.6 10 (18:20) 5.28 (15:30) 0 0 0 0 0
06-09-2019 28.1 (17:00) 8.5 (00:00) 18.3 7.5 (14:30) 4.72 (14:20) 0 0 0 0 0
05-09-2019 27.8 (14:50) 14.8 (00:00) 21.3 8.89 (14:00) 5.56 (14:10) 0 0 0 0 0
04-09-2019 32.4 (17:30) 12.4 (00:00) 22.4 8.61 (15:40) 4.72 (15:40) 0 0 0 0 0
03-09-2019 30.4 (16:20) 12.8 (00:00) 21.6 10.28 (17:30) 5.83 (17:20) 0 0 0 0 0
02-09-2019 28.7 (17:30) 17 (00:00) 22.9 11.67 (11:00) 6.11 (11:30) 0.4 0.4 0 0 0
01-09-2019 31.2 (15:10) 16.5 (00:00) 23.9 6.67 (17:00) 3.89 (17:00) 0 0 0 0 0
31-08-2019 31.3 (17:40) 14.7 (00:00) 23 12.22 (15:30) 8.33 (15:30) 0.2 0.2 0 0 0
30-08-2019 35.4 (15:20) 15.8 (00:00) 25.6 15 (18:40) 8.33 (18:50) 5 0 0 0 5
29-08-2019 34.8 (17:00) 17.1 (00:00) 25.9 11.11 (21:00) 6.11 (21:00) 0 0 0 0 0
28-08-2019 32.2 (17:00) 15.6 (00:00) 23.9 8.33 (15:00) 4.72 (15:20) 0 0 0 0 0
27-08-2019 29.1 (15:10) 17.7 (00:00) 23.4 11.11 (04:20) 5.28 (18:40) 1.6 0 1.6 0 0
26-08-2019 31.9 (15:10) 15.7 (00:00) 23.8 8.33 (15:10) 4.44 (15:10) 0 0 0 0 0
25-08-2019 34.6 (18:00) 16.9 (00:00) 25.7 7.5 (20:40) 3.89 (19:50) 0 0 0 0 0
24-08-2019 33.9 (16:30) 15.9 (00:00) 24.9 8.33 (16:50) 4.44 (16:50) 0 0 0 0 0
23-08-2019 33.4 (16:30) 15.9 (00:00) 24.7 7.22 (19:20) 3.89 (18:50) 0 0 0 0 0

Gráficas

Temp. máximas Temp. mínimas Temp. medias Precipitaciones Rachas de viento máximas Velocidades máximas media en intervalos de 10 minutos

Datos horarios

Fecha y hora oficial Temperatura (ºC) Velocidad del viento (km/h) Dirección del viento Racha (km/h) Dirección de racha Precipitación (mm) Presión (hPa) Tendencia (hPa) Humedad (%)
2019-09-21 23:00:00 19.2 4 Este 17 Sudoeste 0 -- -- 63
2019-09-21 22:00:00 20.2 5 Sudoeste 23 Sudoeste 0 -- -- 57
2019-09-21 21:00:00 21.1 13 Sur 25 Sur 0 -- -- 54
2019-09-21 20:00:00 21.9 10 Sur 29 Sudoeste 0 -- -- 52
2019-09-21 19:00:00 23.7 13 Sudoeste 29 Sudoeste 0 -- -- 43
2019-09-21 18:00:00 26 8 Sur 27 Sudoeste 0 -- -- 39
2019-09-21 17:00:00 28.1 8 Sudoeste 23 Oeste 0 -- -- 32
2019-09-21 16:00:00 27.5 15 Sudoeste 33 Oeste 0 -- -- 33
2019-09-21 15:00:00 27.1 5 Sudoeste 17 Oeste 0 -- -- 41
2019-09-21 14:00:00 25 6 Oeste 10 Noroeste 0 -- -- 51
2019-09-21 13:00:00 22.4 6 Noroeste 15 Oeste 0 -- -- 63
2019-09-21 12:00:00 20.7 5 Sudoeste 12 Sur 0 -- -- 69
2019-09-21 11:00:00 16.3 0 Calma 9 Sudeste 0 -- -- 87
2019-09-21 10:00:00 15.9 7 Este 12 Sudeste 0.2 -- -- 86
2019-09-21 09:00:00 15.6 3 Oeste 14 Sudeste 2.4 -- -- 85
2019-09-21 08:00:00 15.7 8 Este 12 Este 0 -- -- 80
2019-09-21 07:00:00 15.2 3 Sudoeste 10 Oeste 0 -- -- 81
2019-09-21 06:00:00 16 2 Norte 6 Nordeste 0 -- -- 79
2019-09-21 05:00:00 16.3 4 Este 8 Sur 0 -- -- 77
2019-09-21 04:00:00 16.2 0 Calma 8 Este -- -- -- 79
2019-09-21 03:00:00 16.1 4 Este 8 Este 0 -- -- 76
2019-09-21 02:00:00 16.7 0 Calma 7 Nordeste 0 -- -- 73
2019-09-21 01:00:00 17.9 3 Nordeste 9 Norte 0 -- -- 66
2019-09-21 00:00:00 18.6 4 Este 8 Sudeste 0 -- -- 62
2019-09-20 23:00:00 19.5 4 Sudeste 13 Sudoeste 0 -- -- 58
2019-09-20 22:00:00 21 6 Sur 25 Oeste 0 -- -- 51
2019-09-20 21:00:00 22 12 Sudoeste 26 Sudoeste 0 -- -- 47
2019-09-20 20:00:00 23.1 15 Sudoeste 28 Sudoeste 0 -- -- 43
2019-09-20 19:00:00 25 4 Sur 17 Sudeste 0 -- -- 38
2019-09-20 18:00:00 25.9 6 Sudeste 27 Este 0 -- -- 36
2019-09-20 17:00:00 26.8 12 Sudeste 25 Sudeste 0 -- -- 33
2019-09-20 16:00:00 27.3 8 Sudeste 17 Este 0 -- -- 33
2019-09-20 15:00:00 27.2 6 Norte 16 Noroeste 0 -- -- 35
2019-09-20 14:00:00 25.4 5 Noroeste 10 Sudoeste 0 -- -- 44
2019-09-20 13:00:00 24.2 5 Oeste 9 Oeste 0 -- -- 58
2019-09-20 12:00:00 20.9 3 Sur 6 Sudoeste 0 -- -- 72
2019-09-20 11:00:00 17.5 2 Sur 6 Sudoeste 0 -- -- 92
2019-09-20 10:00:00 15.9 3 Oeste 6 Oeste 0 -- -- 93
2019-09-20 09:00:00 14.5 2 Sur 6 Nordeste 0.2 -- -- 92
2019-09-20 08:00:00 13.9 3 Norte 5 Norte 0 -- -- 89
2019-09-20 07:00:00 14.6 0 Calma 5 Norte 0 -- -- 88
2019-09-20 06:00:00 14.7 2 Sudeste 9 Este 0 -- -- 89
2019-09-20 05:00:00 14.4 0 Calma 5 Este 0 -- -- 88
2019-09-20 04:00:00 14.8 3 Sudeste 5 Sudeste 0 -- -- 87
2019-09-20 03:00:00 15.3 3 Norte 5 Norte 0 -- -- 85
2019-09-20 02:00:00 15.8 2 Nordeste 8 Nordeste 0 -- -- 84
2019-09-20 01:00:00 16.5 4 Este 9 Este 0 -- -- 81
2019-09-20 00:00:00 16.3 4 Este 6 Este 0 -- -- 84
2019-09-19 23:00:00 17.1 6 Este 14 Sudeste 0 -- -- 81
2019-09-19 22:00:00 17.7 4 Norte 18 Norte 0 -- -- 78
2019-09-19 21:00:00 18 5 Noroeste 11 Este 0.6 -- -- 81
2019-09-19 20:00:00 18.7 3 Sudeste 12 Este 2.6 -- -- 76
2019-09-19 19:00:00 20.3 9 Este 29 Norte 1.2 -- -- 61
2019-09-19 18:00:00 27.2 6 Sudoeste 23 Sudoeste 0 -- -- 31
2019-09-19 17:00:00 30.1 15 Sudoeste 26 Sudoeste 0 -- -- 25
2019-09-19 16:00:00 29 13 Sudoeste 27 Sudoeste 0 -- -- 27
2019-09-19 15:00:00 27.8 15 Sudoeste 28 Sudoeste 0 -- -- 28
2019-09-19 14:00:00 25 3 Oeste 11 Oeste 0 -- -- 41
2019-09-19 13:00:00 23 2 Sudoeste 6 Oeste 0 -- -- 42
2019-09-19 12:00:00 22.4 4 Sudoeste 12 Sur 0 -- -- 46
2019-09-19 11:00:00 18.7 3 Sudeste 8 Noroeste 0 -- -- 58
2019-09-19 10:00:00 18.8 4 Noroeste 8 Noroeste 0 -- -- 60
2019-09-19 09:00:00 16.5 0 Calma 5 Sudeste 0 -- -- 66
2019-09-19 08:00:00 15.9 4 Este 6 Nordeste 0 -- -- 63
2019-09-19 07:00:00 16.2 4 Nordeste 5 Este 0 -- -- 63
2019-09-19 06:00:00 16.4 3 Norte 6 Este 0 -- -- 60
2019-09-19 05:00:00 16.9 3 Este 10 Este 0 -- -- 58
2019-09-19 04:00:00 16.7 6 Este 10 Este 0 -- -- 60
2019-09-19 03:00:00 17.9 4 Nordeste 9 Este 0 -- -- 55
2019-09-19 02:00:00 18.3 0 Calma 8 Norte 0 -- -- 55
2019-09-19 01:00:00 19.3 5 Este 10 Este 0 -- -- 53
2019-09-19 00:00:00 19.9 3 Sudeste 9 Nordeste 0 -- -- 50
2019-09-18 23:00:00 21.7 2 Este 12 Noroeste 0 -- -- 45
2019-09-18 22:00:00 24 3 Noroeste 30 Este 0 -- -- 38
2019-09-18 21:00:00 24.6 9 Sur 26 Oeste 0 -- -- 36
2019-09-18 20:00:00 25.9 11 Sudoeste 23 Sudoeste 0 -- -- 32
2019-09-18 19:00:00 28 11 Sudoeste 26 Sudoeste 0 -- -- 27
2019-09-18 18:00:00 30.1 13 Sudoeste 29 Sudoeste 0 -- -- 26
2019-09-18 17:00:00 30.9 14 Sudoeste 27 Sudoeste 0 -- -- 24
2019-09-18 16:00:00 31.4 15 Sudoeste 30 Oeste 0 -- -- 24
2019-09-18 15:00:00 31 9 Sur 31 Sudoeste 0 -- -- 25
2019-09-18 14:00:00 31 11 Sudoeste 26 Sudoeste 0 -- -- 25
2019-09-18 13:00:00 29.1 11 Sudoeste 21 Sudoeste 0 -- -- 36
2019-09-18 12:00:00 25.6 3 Oeste 6 Oeste 0 -- -- 44
2019-09-18 11:00:00 22.3 3 Oeste 6 Oeste 0 -- -- 52
2019-09-18 10:00:00 19.8 0 Calma 4 Oeste 0 -- -- 63
2019-09-18 09:00:00 17.4 0 Calma 4 Noroeste 0 -- -- 70
2019-09-18 08:00:00 15.5 0 Calma 6 Este 0 -- -- 75
2019-09-18 07:00:00 15.7 3 Sudeste 7 Norte 0 -- -- 72
2019-09-18 06:00:00 16.6 4 Este 6 Este 0 -- -- 68
2019-09-18 05:00:00 17.3 4 Sudeste 10 Norte 0 -- -- 65
2019-09-18 04:00:00 18.8 3 Norte 12 Este 0 -- -- 58
2019-09-18 03:00:00 20.3 7 Este 12 Este 0 -- -- 53
2019-09-18 02:00:00 19.7 3 Sudeste 8 Este 0 -- -- 55
2019-09-18 01:00:00 21.4 3 Sudoeste 10 Nordeste 0 -- -- 47
2019-09-18 00:00:00 22.3 3 Nordeste 10 Norte 0 -- -- 45
2019-09-17 23:00:00 22 4 Norte 10 Oeste 0 -- -- 43
2019-09-17 22:00:00 22.7 4 Este 11 Este 0 -- -- 43
2019-09-17 21:00:00 24.6 5 Este 13 Noroeste 0 -- -- 38
2019-09-15 18:00:00 -- -- -- -- -- -- -- -- --
2019-09-15 17:00:00 28.7 8 Sudeste 29 Sudeste 0 -- -- 26
2019-09-15 16:00:00 30.4 8 Sur 21 Sur 0 -- -- 27
2019-09-15 15:00:00 29.4 5 Noroeste 12 Sudoeste 0 -- -- 31
2019-09-15 14:00:00 27 6 Oeste 12 Oeste 0 -- -- 51
2019-09-15 13:00:00 23.6 6 Oeste 12 Noroeste 0 -- -- 60
2019-09-15 12:00:00 20.9 2 Sudoeste 6 Sur 0 -- -- 72
2019-09-15 11:00:00 18.8 0 Calma 10 Oeste 0 -- -- 82
2019-09-15 10:00:00 17.4 4 Noroeste 8 Noroeste 0 -- -- 84
2019-09-15 09:00:00 16.2 5 Norte 7 Este 0 -- -- 88
2019-09-15 08:00:00 15.4 4 Sur 13 Noroeste 0 -- -- 86
2019-09-15 07:00:00 16 4 Noroeste 14 Este 0 -- -- 84
2019-09-15 06:00:00 16.1 10 Este 17 Este 0 -- -- 85
2019-09-15 05:00:00 16.5 0 Calma 13 Este 0.6 -- -- 86
2019-09-15 04:00:00 16.7 2 Noroeste 13 Este 3.4 -- -- 85
2019-09-15 03:00:00 17.1 5 Nordeste 15 Este 0.4 -- -- 82
2019-09-15 02:00:00 16.8 10 Este 14 Sudeste 0 -- -- 85
2019-09-15 01:00:00 17 4 Norte 12 Este 0.6 -- -- 82
2019-09-15 00:00:00 17 5 Sudoeste 27 Nordeste 11.8 -- -- 80
2019-09-14 23:00:00 18.7 8 Sudeste 31 Este 1.4 -- -- 64
2019-09-14 22:00:00 23.9 18 Este 35 Este 0 -- -- 36
2019-09-14 21:00:00 25.1 12 Este 24 Sudeste 0 -- -- 29
2019-09-14 20:00:00 26.2 8 Este 28 Este 0 -- -- 25
2019-09-14 19:00:00 27.9 10 Sudeste 33 Sudeste 0 -- -- 22
2019-09-14 18:00:00 28.9 13 Sudeste 27 Sudeste 0 -- -- 21
2019-09-14 17:00:00 29.2 14 Sudeste 28 Sudeste 0 -- -- 22
2019-09-14 16:00:00 28.7 11 Sudeste 29 Sudeste 0 -- -- 25
2019-09-14 15:00:00 29.8 10 Sudeste 19 Sur 0 -- -- 24
2019-09-14 14:00:00 27.9 5 Noroeste 15 Noroeste 0 -- -- 33
2019-09-14 13:00:00 23.7 4 Noroeste 9 Noroeste 0 -- -- 50
2019-09-14 12:00:00 23.3 5 Oeste 9 Oeste 0.2 -- -- 52
2019-09-14 11:00:00 20.2 5 Oeste 10 Oeste 0 -- -- 63
2019-09-14 10:00:00 16.7 2 Oeste 6 Sudeste 0 -- -- 78
2019-09-14 09:00:00 14.7 3 Noroeste 6 Noroeste 0 -- -- 84
2019-09-14 08:00:00 13.2 2 Nordeste 5 Nordeste 0 -- -- 86
2019-09-14 07:00:00 13.8 2 Nordeste 5 Este 0 -- -- 83
2019-09-14 06:00:00 -- -- -- -- -- -- -- -- --
2019-09-14 05:00:00 14.7 4 Este 8 Sudeste 0 -- -- 81
2019-09-14 04:00:00 15.3 3 Sudeste 9 Oeste 0 -- -- 78
2019-09-14 03:00:00 15.7 6 Este 14 Este 0 -- -- 74
2019-09-14 02:00:00 16.1 11 Este 17 Este 0 -- -- 76
2019-09-14 01:00:00 17.2 3 Sur 10 Nordeste 0.2 -- -- 71
2019-09-14 00:00:00 20.4 6 Sudoeste 24 Sudoeste 0.4 -- -- 54
2019-09-13 23:00:00 21.2 3 Oeste 11 Sudeste 0 -- -- 36
2019-09-13 22:00:00 22.1 2 Norte 19 Este 0 -- -- 33
2019-09-13 21:00:00 23.9 10 Este 18 Este 0 -- -- 26
2019-09-13 20:00:00 25.4 9 Este 15 Este 0 -- -- 25
2019-09-13 19:00:00 27.8 5 Nordeste 12 Noroeste 0 -- -- 24
2019-09-13 18:00:00 28.9 6 Sudeste 23 Sudeste 0 -- -- 22
2019-09-13 17:00:00 27.7 11 Sudeste 26 Este 0 -- -- 20
2019-09-13 16:00:00 26.7 7 Oeste 14 Noroeste 0 -- -- 26
2019-09-13 15:00:00 25 6 Noroeste 41 Sudeste 0 -- -- 31
2019-09-13 14:00:00 24.4 6 Oeste 20 Norte 0 -- -- 39
2019-09-13 13:00:00 22.3 9 Norte 14 Norte 0 -- -- 38
2019-09-13 12:00:00 20.6 4 Noroeste 12 Oeste 0 -- -- 50
2019-09-13 11:00:00 20.6 3 Oeste 11 Oeste 0 -- -- 49
2019-09-13 10:00:00 17.3 3 Sudoeste 11 Norte 0 -- -- 61
2019-09-13 09:00:00 14.5 8 Norte 11 Norte 0 -- -- 70
2019-09-13 08:00:00 12.6 2 Este 5 Este 0 -- -- 77
2019-09-13 07:00:00 13.4 0 Calma 6 Norte 0 -- -- 71
2019-09-13 06:00:00 14 0 Calma 9 Sudeste 0 -- -- 69
2019-09-13 05:00:00 14.8 0 Calma 9 Norte 0 -- -- 65
2019-09-13 04:00:00 16.1 4 Norte 8 Este 0 -- -- 60
2019-09-13 03:00:00 15.6 0 Calma 6 Este 0 -- -- 63
2019-09-13 02:00:00 16.6 2 Norte 5 Norte 0 -- -- 60
2019-09-13 01:00:00 18.2 3 Este 8 Nordeste 0 -- -- 53
2019-09-13 00:00:00 18.8 3 Sudeste 7 Este 0 -- -- 52
2019-09-12 23:00:00 20.8 4 Oeste 11 Sudeste 0 -- -- 43
2019-09-12 22:00:00 21.3 7 Este 12 Este 0 -- -- 42
2019-09-12 21:00:00 23 6 Este 22 Sudoeste 0 -- -- 37
2019-09-12 20:00:00 25.7 11 Sudoeste 35 Sudoeste 0 -- -- 30
2019-09-12 19:00:00 28.8 17 Sudoeste 31 Sudoeste 0 -- -- 25
2019-09-12 18:00:00 31.9 6 Sudoeste 19 Oeste 0 -- -- 18
2019-09-12 17:00:00 31.3 6 Oeste 19 Sudoeste 0 -- -- 20
2019-09-12 16:00:00 30.4 10 Sudoeste 27 Sudoeste 0 -- -- 22
2019-09-12 15:00:00 29.9 13 Sudoeste 25 Sudoeste 0 -- -- 25
2019-09-12 14:00:00 28.4 6 Oeste 15 Oeste 0 -- -- 23
2019-09-12 13:00:00 26 7 Oeste 14 Noroeste 0 -- -- 31
2019-09-12 12:00:00 23.1 4 Oeste 9 Oeste 0 -- -- 37
2019-09-12 11:00:00 20.1 3 Sudoeste 8 Oeste 0 -- -- 48
2019-09-12 10:00:00 16.9 3 Noroeste 5 Noroeste 0 -- -- 60
2019-09-12 09:00:00 13.4 3 Norte 6 Sudeste 0 -- -- 71
2019-09-12 08:00:00 11.4 0 Calma 6 Norte 0 -- -- 76
2019-09-12 07:00:00 11.6 0 Calma 4 Este 0 -- -- 75
2019-09-12 06:00:00 11.9 0 Calma 4 Norte 0 -- -- 75
2019-09-12 05:00:00 12.8 2 Norte 4 Este 0 -- -- 72
2019-09-12 04:00:00 14 0 Calma 5 Este 0 -- -- 63
2019-09-12 03:00:00 15 3 Nordeste 10 Este 0 -- -- 60
2019-09-12 02:00:00 16.2 5 Nordeste 12 Este 0 -- -- 54
2019-09-12 01:00:00 16.9 6 Este 11 Este 0 -- -- 52
2019-09-12 00:00:00 17.4 3 Este 9 Este 0 -- -- 58
2019-09-11 23:00:00 18.3 3 Este 16 Sudeste 0 -- -- 54
2019-09-11 22:00:00 20.9 6 Sur 21 Sudoeste 0 -- -- 45
2019-09-11 21:00:00 21.9 7 Sur 16 Sudoeste 0 -- -- 41
2019-09-11 20:00:00 24.6 4 Sudeste 17 Este 0 -- -- 34
2019-09-11 19:00:00 26.7 5 Sur 14 Sudeste 0 -- -- 26
2019-09-11 18:00:00 25.9 3 Sudoeste 10 Norte 0 -- -- 29
2019-09-11 17:00:00 25.1 6 Norte 26 Norte 0 -- -- 29
2019-09-11 16:00:00 27.1 12 Norte 25 Norte 0 -- -- 25
2019-09-11 15:00:00 26.5 5 Norte 21 Nordeste 0 -- -- 26
2019-09-11 14:00:00 24 5 Noroeste 12 Noroeste 0 -- -- 31
2019-09-11 13:00:00 23.1 5 Noroeste 10 Noroeste 0 -- -- 31
2019-09-11 12:00:00 22.2 2 Este 12 Este 0 -- -- 36
2019-09-11 11:00:00 22.3 7 Este 19 Norte 0 -- -- 32
2019-09-11 10:00:00 19.5 3 Sur 10 Este 0 -- -- 45
2019-09-11 09:00:00 17.5 4 Este 16 Norte 0 -- -- 45
2019-09-11 08:00:00 16.9 5 Nordeste 17 Norte 0 -- -- 41
2019-09-11 07:00:00 17.2 9 Norte 24 Norte 0 -- -- 39
2019-09-11 06:00:00 16.6 4 Nordeste 15 Nordeste 0 -- -- 43
2019-09-11 05:00:00 17.4 4 Nordeste 21 Norte 0 -- -- 37
2019-09-11 04:00:00 16.4 3 Este 21 Nordeste 0 -- -- 39
2019-09-11 03:00:00 17.6 13 Nordeste 28 Norte 0 -- -- 35
2019-09-11 02:00:00 16.6 2 Sudeste 23 Norte 0 -- -- 40
2019-09-11 01:00:00 15.8 6 Nordeste 14 Este 0 -- -- 43
2019-09-11 00:00:00 13.9 4 Este 11 Sudeste 0 -- -- 55
2019-09-10 23:00:00 13.3 2 Este 6 Nordeste 0 -- -- 62
2019-09-10 22:00:00 13.2 3 Este 8 Este 0 -- -- 66
2019-09-10 21:00:00 13.5 2 Sur 9 Este 0.4 -- -- 68
2019-09-10 20:00:00 15.9 4 Este 8 Este 0 -- -- 56
2019-09-10 19:00:00 16.5 2 Este 8 Noroeste 0 -- -- 59
2019-09-10 18:00:00 17 3 Sur 23 Sudoeste 0 -- -- 50
2019-09-10 17:00:00 18.4 13 Sudoeste 27 Sudoeste 0 -- -- 45
2019-09-10 16:00:00 17.6 14 Sudoeste 27 Sudoeste 0 -- -- 50
2019-09-10 15:00:00 18.6 8 Sur 16 Sudeste 0 -- -- 48
2019-09-10 14:00:00 15.1 5 Sur 12 Sudeste 0.4 -- -- 72
2019-09-10 13:00:00 14 2 Sudeste 21 Sudoeste 0.4 -- -- 70
2019-09-10 12:00:00 16.6 8 Oeste 14 Oeste 0 -- -- 58
2019-09-10 11:00:00 15.3 3 Oeste 9 Oeste 0 -- -- 80
2019-09-10 10:00:00 14.6 3 Noroeste 10 Sudeste 0.2 -- -- 81
2019-09-10 09:00:00 13.6 3 Este 9 Sudeste 0 -- -- 85
2019-09-10 08:00:00 13.2 6 Este 14 Sudeste 0 -- -- 83
2019-09-10 07:00:00 12.9 2 Este 13 Norte 0 -- -- 82
2019-09-10 06:00:00 13.4 7 Este 25 Oeste 8.8 -- -- 78
2019-09-10 05:00:00 17.2 9 Nordeste 24 Nordeste 0 -- -- 53
2019-09-10 04:00:00 17.4 6 Norte 14 Norte 0 -- -- 53
2019-09-10 03:00:00 17.6 3 Este 7 Noroeste 0 -- -- 48
2019-09-10 02:00:00 17.8 0 Calma 6 Norte 0 -- -- 49
2019-09-10 01:00:00 19.2 2 Sudeste 8 Este 0 -- -- 42
2019-09-10 00:00:00 20.6 3 Sudeste 22 Oeste 0 -- -- 39
2019-09-09 23:00:00 21.4 6 Oeste 30 Sudoeste 0 -- -- 41
2019-09-09 22:00:00 21.4 6 Sur 27 Sudoeste 0 -- -- 30
2019-09-09 21:00:00 22.1 18 Sudoeste 36 Sudoeste 0 -- -- 29
2019-09-09 20:00:00 23.5 5 Sur 13 Sudoeste 0 -- -- 24
2019-09-09 19:00:00 25.3 6 Oeste 18 Sudoeste 0 -- -- 23
2019-09-09 18:00:00 26.2 12 Sudoeste 27 Sudoeste 0 -- -- 21
2019-09-09 17:00:00 28 15 Sudoeste 27 Sur 0 -- -- 18
2019-09-09 16:00:00 27.9 8 Sur 26 Sudoeste 0 -- -- 17
2019-09-09 15:00:00 27.2 13 Sudoeste 27 Sudoeste 0 -- -- 21
2019-09-09 14:00:00 26.8 13 Sudoeste 26 Sudoeste 0 -- -- 23
2019-09-09 13:00:00 25.2 13 Sudoeste 27 Oeste 0 -- -- 25
2019-09-09 12:00:00 22.2 5 Noroeste 12 Oeste 0 -- -- 38
2019-09-09 11:00:00 19.5 4 Oeste 9 Sudoeste 0 -- -- 44
2019-09-09 10:00:00 17.3 3 Noroeste 7 Noroeste 0 -- -- 49
2019-09-09 09:00:00 12.9 0 Calma 5 Este 0 -- -- 71
2019-09-09 08:00:00 10.7 2 Noroeste 6 Este 0 -- -- 77
2019-09-09 07:00:00 10.6 2 Norte 5 Nordeste 0 -- -- 75
2019-09-09 06:00:00 11.7 2 Nordeste 8 Este 0 -- -- 72
2019-09-09 05:00:00 12.4 0 Calma 6 Nordeste 0 -- -- 68
2019-09-09 04:00:00 13 3 Nordeste 8 Norte 0 -- -- 66
2019-09-09 03:00:00 14 4 Nordeste 8 Este 0 -- -- 62
2019-09-09 02:00:00 15.4 2 Sudeste 12 Norte 0 -- -- 59
2019-09-09 01:00:00 17 7 Nordeste 20 Noroeste 0 -- -- 51
2019-09-09 00:00:00 17.9 5 Sur 11 Sudeste 0 -- -- 42
2019-09-08 23:00:00 18.1 3 Nordeste 8 Norte 0 -- -- 35
2019-09-08 22:00:00 20.4 5 Este 22 Sudoeste 0 -- -- 29
2019-09-08 21:00:00 21.9 9 Sur 22 Sudoeste 0 -- -- 27
2019-09-08 20:00:00 24.3 5 Sudoeste 18 Sudoeste 0 -- -- 25
2019-09-08 19:00:00 26.6 9 Sudoeste 22 Sudoeste 0 -- -- 21
2019-09-08 18:00:00 26.4 11 Sudoeste 28 Sudoeste 0 -- -- 22
2019-09-08 17:00:00 27.2 14 Sudoeste 32 Sudoeste 0 -- -- 22
2019-09-08 16:00:00 26.4 17 Sudoeste 30 Oeste 0 -- -- 23
2019-09-08 15:00:00 26.3 19 Sudoeste 33 Sudoeste 0 -- -- 26
2019-09-08 14:00:00 25.1 17 Sudoeste 31 Oeste 0 -- -- 27
2019-09-08 13:00:00 23.9 17 Sudoeste 27 Oeste 0 -- -- 29
2019-09-08 12:00:00 22.1 12 Sudoeste 24 Sudoeste 0 -- -- 33
2019-09-08 11:00:00 18.9 3 Oeste 8 Noroeste 0 -- -- 38
2019-09-08 10:00:00 15.7 0 Calma 5 Noroeste 0 -- -- 47
2019-09-08 09:00:00 11.7 2 Norte 3 Norte 0 -- -- 61
2019-09-08 08:00:00 9.3 2 Este 4 Este 0 -- -- 65
2019-09-08 07:00:00 9.3 0 Calma 4 Norte 0 -- -- 64
2019-09-08 06:00:00 10.5 0 Calma 5 Este 0 -- -- 58
2019-09-08 05:00:00 11.4 2 Este 5 Este 0 -- -- 55
2019-09-08 04:00:00 11.1 3 Este 7 Sudeste 0 -- -- 56
2019-09-08 03:00:00 12.5 0 Calma 6 Este 0 -- -- 50
2019-09-08 02:00:00 13.7 2 Sudeste 8 Este 0 -- -- 47
2019-09-08 01:00:00 14 4 Este 6 Este 0 -- -- 46
2019-09-08 00:00:00 15.5 0 Calma 5 Nordeste 0 -- -- 40
2019-09-07 23:00:00 16.9 4 Nordeste 9 Sudeste 0 -- -- 35
2019-09-07 22:00:00 19.4 3 Sudeste 16 Sudoeste 0 -- -- 30
2019-09-07 21:00:00 21 5 Sudoeste 20 Sudoeste 0 -- -- 26
2019-09-07 20:00:00 23.1 12 Sudoeste 26 Sudoeste 0 -- -- 22
2019-09-07 19:00:00 24.8 15 Sudoeste 36 Sudoeste 0 -- -- 20
2019-09-07 18:00:00 26 18 Sudoeste 31 Sudoeste 0 -- -- 20
2019-09-07 17:00:00 26.1 19 Sudoeste 31 Sudoeste 0 -- -- 21
2019-09-07 16:00:00 26.6 17 Sudoeste 30 Oeste 0 -- -- 22
2019-09-07 15:00:00 26.6 18 Sudoeste 33 Oeste 0 -- -- 21
2019-09-07 14:00:00 25.3 17 Sudoeste 31 Sudoeste 0 -- -- 23
2019-09-07 13:00:00 24.3 12 Sudoeste 22 Sudoeste 0 -- -- 24
2019-09-07 12:00:00 21.3 4 Sur 13 Sudoeste 0 -- -- 20
2019-09-07 11:00:00 18.4 3 Oeste 8 Oeste 0 -- -- 28
2019-09-07 10:00:00 15.2 4 Sudoeste 7 Oeste 0 -- -- 45
2019-09-07 09:00:00 10.9 0 Calma 4 Este 0 -- -- 56
2019-09-07 08:00:00 8.4 2 Este 6 Sudeste 0 -- -- 60
2019-09-07 07:00:00 9.4 2 Noroeste 9 Este 0 -- -- 54
2019-09-07 06:00:00 10.6 3 Este 5 Este 0 -- -- 49
2019-09-07 05:00:00 12 4 Este 8 Este 0 -- -- 45
2019-09-07 04:00:00 12.6 2 Este 10 Este 0 -- -- 44
2019-09-07 03:00:00 12.9 3 Sudeste 9 Este 0 -- -- 43
2019-09-07 02:00:00 14.4 6 Este 11 Nordeste 0 -- -- 39
2019-09-07 01:00:00 14.9 6 Este 10 Este 0 -- -- 38
2019-09-07 00:00:00 14.9 0 Calma 6 Nordeste 0 -- -- 39
2019-09-06 23:00:00 16.3 3 Este 7 Nordeste 0 -- -- 36
2019-09-06 22:00:00 18 5 Este 10 Este 0 -- -- 32
2019-09-06 21:00:00 20.3 2 Este 12 Sudoeste 0 -- -- 27
2019-09-06 20:00:00 23.7 4 Sudoeste 19 Sudoeste 0 -- -- 20
2019-09-06 19:00:00 26.5 11 Oeste 23 Oeste 0 -- -- 16
2019-09-06 18:00:00 27.5 9 Oeste 25 Sudoeste 0 -- -- 15
2019-09-06 17:00:00 28.1 14 Oeste 27 Oeste 0 -- -- 16
2019-09-06 16:00:00 27 15 Sudoeste 27 Sudoeste 0 -- -- 20
2019-09-06 15:00:00 26.3 13 Sudoeste 27 Sudoeste 0 -- -- 22
2019-09-06 14:00:00 26.2 13 Sudoeste 24 Sudoeste 0 -- -- 19
2019-09-06 13:00:00 24.3 10 Sudoeste 21 Oeste 0 -- -- 19
2019-09-06 12:00:00 22.1 7 Sudoeste 16 Sudoeste 0 -- -- 23
2019-09-06 11:00:00 19.3 3 Sudoeste 9 Oeste 0 -- -- 33
2019-09-06 10:00:00 15.6 2 Oeste 5 Oeste 0 -- -- 47
2019-09-06 09:00:00 11 3 Noroeste 5 Noroeste 0 -- -- 58
2019-09-06 08:00:00 8.5 0 Calma 4 Este 0 -- -- 60
2019-09-06 07:00:00 9.2 0 Calma 4 Este 0 -- -- 55
2019-09-06 06:00:00 11.1 2 Nordeste 9 Este 0 -- -- 48
2019-09-06 05:00:00 12.2 5 Este 9 Este 0 -- -- 44
2019-09-06 04:00:00 13 3 Este 12 Sudeste 0 -- -- 41
2019-09-06 03:00:00 13.5 9 Este 11 Este 0 -- -- 41
2019-09-06 02:00:00 14 7 Este 10 Este 0 -- -- 40
2019-09-06 01:00:00 14.7 8 Este 11 Este 0 -- -- 38
2019-09-06 00:00:00 15.2 7 Este 10 Este 0 -- -- 36
2019-09-05 23:00:00 15.8 7 Este 10 Este 0 -- -- 34
2019-09-05 22:00:00 16.7 2 Este 9 Norte 0 -- -- 35
2019-09-05 21:00:00 19.8 4 Nordeste 13 Norte 0 -- -- 26
2019-09-05 20:00:00 23.3 4 Noroeste 16 Noroeste 0 -- -- 21
2019-09-05 19:00:00 24.2 5 Noroeste 28 Sur 0 -- -- 22
2019-09-05 18:00:00 26 14 Sudoeste 28 Sudoeste 0 -- -- 27
2019-09-05 17:00:00 26.1 12 Sur 26 Sur 0 -- -- 28
2019-09-05 16:00:00 26 14 Sudoeste 29 Sudoeste 0 -- -- 31
2019-09-05 15:00:00 27.4 18 Sudoeste 32 Sudoeste 0 -- -- 29
2019-09-05 14:00:00 26.8 18 Sudoeste 32 Oeste 0 -- -- 29
2019-09-05 13:00:00 25.6 14 Sudoeste 24 Sudoeste 0 -- -- 32
2019-09-05 12:00:00 23.6 10 Sudoeste 27 Sudoeste 0 -- -- 35
2019-09-05 11:00:00 21.2 10 Sudoeste 19 Sur 0 -- -- 42
2019-09-05 10:00:00 18.7 6 Sudoeste 16 Sudoeste 0 -- -- 50
2019-09-05 09:00:00 15.5 3 Sur 14 Sur 0 -- -- 62
2019-09-05 08:00:00 14.8 7 Sur 17 Sur 0 -- -- 65
2019-09-05 07:00:00 15.2 4 Sudeste 20 Sudoeste 0 -- -- 64
2019-09-05 06:00:00 15.8 5 Sudeste 17 Sur 0 -- -- 63
2019-09-05 05:00:00 16.7 5 Sudeste 14 Sudeste 0 -- -- 61
2019-09-05 04:00:00 17.1 5 Sur 11 Sur 0 -- -- 58
2019-09-05 03:00:00 17.5 4 Sur 13 Sur 0 -- -- 55
2019-09-05 02:00:00 17 2 Este 9 Norte 0 -- -- 54
2019-09-05 01:00:00 18.4 0 Calma 6 Este 0 -- -- 48
2019-09-05 00:00:00 19.8 0 Calma 10 Norte 0 -- -- 44
2019-09-04 23:00:00 22 3 Oeste 9 Sur 0 -- -- 38
2019-09-04 22:00:00 22.8 3 Norte 9 Nordeste 0 -- -- 36
2019-09-04 21:00:00 25.4 4 Sur 18 Sudoeste 0 -- -- 29
2019-09-04 20:00:00 28.4 8 Sudoeste 19 Sudoeste 0 -- -- 22
2019-09-04 19:00:00 30.3 11 Sudoeste 23 Sudoeste 0 -- -- 18
2019-09-04 18:00:00 31.6 15 Sudoeste 29 Sudoeste 0 -- -- 19
2019-09-04 17:00:00 32 14 Sudoeste 28 Sudoeste 0 -- -- 21
2019-09-04 16:00:00 31.9 13 Sudoeste 31 Sudoeste 0 -- -- 23
2019-09-04 15:00:00 32 12 Sudoeste 24 Sudoeste 0 -- -- 23
2019-09-04 14:00:00 30.5 7 Oeste 22 Sudoeste 0 -- -- 24
2019-09-04 13:00:00 28.6 8 Oeste 15 Oeste 0 -- -- 30
2019-09-04 12:00:00 25 4 Oeste 10 Oeste 0 -- -- 38
2019-09-04 11:00:00 22.1 3 Oeste 8 Oeste 0 -- -- 47
2019-09-04 10:00:00 18.8 3 Oeste 6 Oeste 0 -- -- 58
2019-09-04 09:00:00 14.5 0 Calma 4 Este 0 -- -- 76
2019-09-04 08:00:00 12.4 0 Calma 6 Norte 0 -- -- 78
2019-09-04 07:00:00 13.1 3 Nordeste 8 Sudeste 0 -- -- 73
2019-09-04 06:00:00 13.5 3 Sudeste 5 Norte 0 -- -- 71
2019-09-04 05:00:00 14.8 4 Norte 6 Norte 0 -- -- 66
2019-09-04 04:00:00 14.9 4 Sudeste 6 Sudeste 0 -- -- 67
2019-09-04 03:00:00 15.2 0 Calma 4 Norte 0 -- -- 66
2019-09-04 02:00:00 15.9 0 Calma 4 Este 0 -- -- 62
2019-09-04 01:00:00 17.1 3 Nordeste 6 Este 0 -- -- 57
2019-09-04 00:00:00 18.8 4 Este 7 Este 0 -- -- 49
2019-09-03 23:00:00 20.2 4 Este 12 Sudeste 0 -- -- 45
2019-09-03 22:00:00 21.3 3 Sudeste 10 Este 0 -- -- 42
2019-09-03 21:00:00 24 6 Sur 23 Sudoeste 0 -- -- 34
2019-09-03 20:00:00 25.9 15 Sudoeste 31 Sudoeste 0 -- -- 29
2019-09-03 19:00:00 27.3 18 Sudoeste 32 Sudoeste 0 -- -- 28
2019-09-03 18:00:00 28.6 18 Sudoeste 37 Sudoeste 0 -- -- 26
2019-09-03 17:00:00 29.4 18 Sudoeste 30 Sudoeste 0 -- -- 27
2019-09-03 16:00:00 30 16 Sudoeste 28 Sudoeste 0 -- -- 26
2019-09-03 15:00:00 29.6 17 Sudoeste 27 Sudoeste 0 -- -- 27
2019-09-03 14:00:00 29.1 12 Sudoeste 19 Sudoeste 0 -- -- 27
2019-09-03 13:00:00 27.4 10 Sudoeste 18 Sudoeste 0 -- -- 28
2019-09-03 12:00:00 24.8 5 Oeste 12 Oeste 0 -- -- 28
2019-09-03 11:00:00 21.8 3 Oeste 11 Sudoeste 0 -- -- 31
2019-09-03 10:00:00 20 2 Sudoeste 6 Sur 0 -- -- 35
2019-09-03 09:00:00 15.6 0 Calma 5 Norte 0 -- -- 46
2019-09-03 08:00:00 13.1 4 Este 9 Este 0 -- -- 56
2019-09-03 07:00:00 13.4 3 Nordeste 11 Este 0 -- -- 54
2019-09-03 06:00:00 14 6 Este 9 Este 0 -- -- 53
2019-09-03 05:00:00 14.9 3 Nordeste 9 Este 0 -- -- 50
2019-09-03 04:00:00 15.7 3 Este 7 Nordeste 0 -- -- 49
2019-09-03 03:00:00 17.2 5 Nordeste 9 Nordeste 0 -- -- 44
2019-09-03 02:00:00 18.5 5 Nordeste 8 Nordeste 0 -- -- 43
2019-09-03 01:00:00 18.2 4 Este 6 Norte 0 -- -- 58
2019-09-03 00:00:00 19.7 4 Este 12 Este 0 -- -- 51
2019-09-02 23:00:00 20.6 0 Calma 9 Sudeste 0 -- -- 49
2019-09-02 22:00:00 21.8 4 Sudeste 15 Sudoeste 0 -- -- 45
2019-09-02 21:00:00 23.3 6 Sudoeste 16 Sudoeste 0 -- -- 41
2019-09-02 20:00:00 25.7 6 Sudoeste 17 Sudoeste 0 -- -- 39
2019-09-02 19:00:00 27.1 13 Sudoeste 21 Sudoeste 0 -- -- 34
2019-09-02 18:00:00 27.7 11 Sudoeste 25 Sudoeste 0 -- -- 33
2019-09-02 17:00:00 28.5 12 Sudoeste 24 Oeste 0 -- -- 31
2019-09-02 16:00:00 27.6 15 Sudoeste 31 Oeste 0 -- -- 36
2019-09-02 15:00:00 26.4 17 Sudoeste 33 Sudoeste 0 -- -- 38
2019-09-02 14:00:00 24.8 18 Sudoeste 38 Sudoeste 0 -- -- 41
2019-09-02 13:00:00 22.9 18 Sudoeste 35 Sudoeste 0 -- -- 49
2019-09-02 12:00:00 20.3 22 Sudoeste 38 Sudoeste 0 -- -- 55
2019-09-02 11:00:00 18.5 19 Sudoeste 42 Sudoeste 0 -- -- 66
2019-09-02 10:00:00 18 12 Sudoeste 39 Sudoeste 0 -- -- 70
2019-09-02 09:00:00 17.1 20 Sudoeste 40 Sudoeste 0 -- -- 74
2019-09-02 08:00:00 17.1 4 Sur 13 Oeste 0 -- -- 75
2019-09-02 07:00:00 17.7 3 Nordeste 26 Sur 0 -- -- 69
2019-09-02 06:00:00 17.8 19 Sudoeste 36 Sudoeste 0 -- -- 68
2019-09-02 05:00:00 18.7 4 Sudeste 11 Sudoeste 0 -- -- 82
2019-09-02 04:00:00 19 3 Sur 7 Norte 0 -- -- 82
2019-09-02 03:00:00 20 3 Noroeste 11 Norte 0 -- -- 77
2019-09-02 02:00:00 20.6 5 Sudeste 27 Sudeste 0.4 -- -- 74
2019-09-02 01:00:00 21.2 2 Nordeste 11 Norte 0 -- -- 69
2019-09-02 00:00:00 22.1 5 Este 9 Sudeste 0 -- -- 61
2019-09-01 23:00:00 22.7 4 Nordeste 11 Sudeste 0 -- -- 59
2019-09-01 22:00:00 23.7 3 Nordeste 8 Este 0 -- -- 54
2019-09-01 21:00:00 24.2 3 Sur 9 Norte 0 -- -- 54
2019-09-01 20:00:00 25.4 4 Sur 10 Sur 0 -- -- 49
2019-09-01 19:00:00 27.3 7 Nordeste 12 Nordeste 0 -- -- 42
2019-09-01 18:00:00 27.7 4 Este 22 Sudoeste 0 -- -- 43
2019-09-01 17:00:00 30.1 14 Sudoeste 24 Sudoeste 0 -- -- 30
2019-09-01 16:00:00 30.4 10 Oeste 18 Oeste 0 -- -- 29
2019-09-01 15:00:00 30.3 6 Noroeste 17 Oeste 0 -- -- 32
2019-09-01 14:00:00 27.9 6 Norte 14 Oeste 0 -- -- 37
2019-09-01 13:00:00 26.9 6 Oeste 12 Oeste 0 -- -- 41
2019-09-01 12:00:00 24.5 5 Oeste 11 Sudoeste 0 -- -- 48
2019-09-01 11:00:00 22.2 5 Sudoeste 9 Oeste 0 -- -- 57
2019-09-01 10:00:00 18.4 3 Oeste 6 Oeste 0 -- -- 72
2019-09-01 09:00:00 17 2 Oeste 11 Oeste 0 -- -- 77
2019-09-01 08:00:00 16.7 3 Nordeste 9 Noroeste 0 -- -- 76
2019-09-01 07:00:00 16.5 2 Sudeste 6 Este 0 -- -- 73
2019-09-01 06:00:00 17.3 2 Noroeste 10 Este 0 -- -- 68
2019-09-01 05:00:00 17.6 3 Norte 8 Sudeste 0 -- -- 67
2019-09-01 04:00:00 17.8 0 Calma 8 Este 0 -- -- 66
2019-09-01 03:00:00 18.8 4 Este 8 Este 0 -- -- 62
2019-09-01 02:00:00 20 5 Este 9 Este 0 -- -- 56
2019-09-01 01:00:00 20.5 3 Este 7 Nordeste 0 -- -- 56
2019-09-01 00:00:00 20.1 4 Este 9 Este 0 -- -- 55
2019-08-31 23:00:00 21.4 3 Norte 9 Este 0 -- -- 53
2019-08-31 22:00:00 21.9 3 Sudeste 9 Este 0 -- -- 52
2019-08-31 21:00:00 23.1 3 Sudeste 14 Sudeste 0 -- -- 49
2019-08-31 20:00:00 25.8 6 Sur 18 Sudeste 0 -- -- 38
2019-08-31 19:00:00 27.5 8 Sur 28 Este 0 -- -- 33
2019-08-31 18:00:00 30.4 6 Noroeste 19 Norte 0 -- -- 24
2019-08-31 17:00:00 30 8 Oeste 41 Oeste 0 -- -- 24
2019-08-31 16:00:00 28.9 21 Oeste 44 Oeste 0 -- -- 31
2019-08-31 15:00:00 31.1 5 Oeste 17 Oeste 0 -- -- 33
2019-08-31 14:00:00 28.3 9 Noroeste 15 Noroeste 0 -- -- 40
2019-08-31 13:00:00 25.6 7 Oeste 10 Oeste 0 -- -- 49
2019-08-31 12:00:00 22 3 Oeste 8 Oeste 0 -- -- 70
2019-08-31 11:00:00 18.5 3 Oeste 5 Oeste 0 -- -- 93
2019-08-31 10:00:00 16 2 Oeste 6 Noroeste 0 -- -- 93
2019-08-31 09:00:00 15.3 2 Noroeste 4 Norte 0 -- -- 93
2019-08-31 08:00:00 15 0 Calma 4 Noroeste 0 -- -- 92
2019-08-31 07:00:00 15 0 Calma 6 Norte 0 -- -- 91
2019-08-31 06:00:00 14.7 4 Norte 5 Sudeste 0.2 -- -- 89
2019-08-31 05:00:00 14.9 0 Calma 4 Este 0 -- -- 88
2019-08-31 04:00:00 15.1 0 Calma 3 Norte 0 -- -- 88
2019-08-31 03:00:00 15.4 2 Este 4 Este 0 -- -- 87
2019-08-31 02:00:00 15.9 0 Calma 5 Este 0 -- -- 86
2019-08-31 01:00:00 16.3 4 Este 6 Este 0 -- -- 86
2019-08-31 00:00:00 16.7 4 Sudeste 6 Sudeste 0 -- -- 85
2019-08-30 23:00:00 17.3 3 Noroeste 12 Este 0 -- -- 83
2019-08-30 22:00:00 18 8 Este 10 Este 0 -- -- 81
2019-08-30 21:00:00 19.1 5 Este 24 Nordeste 0.4 -- -- 73
2019-08-30 20:00:00 19.7 5 Sudeste 41 Este 1.6 -- -- 77
2019-08-30 19:00:00 21.4 25 Sudeste 54 Este 3 -- -- 66
2019-08-30 18:00:00 29.5 13 Sudoeste 34 Oeste 0 -- -- 30
2019-08-30 17:00:00 32.3 10 Sudoeste 23 Sudoeste 0 -- -- 26
2019-08-30 16:00:00 35.1 14 Sudoeste 30 Sudoeste 0 -- -- 23
2019-08-30 15:00:00 34.3 6 Este 21 Noroeste 0 -- -- 22
2019-08-30 14:00:00 33.2 6 Oeste 13 Oeste 0 -- -- 26
2019-08-30 13:00:00 30.8 6 Sudoeste 12 Sudoeste 0 -- -- 29
2019-08-30 12:00:00 27.8 5 Oeste 11 Sudoeste 0 -- -- 34
2019-08-30 11:00:00 25.2 5 Oeste 8 Oeste 0 -- -- 43
2019-08-30 10:00:00 21.7 2 Sur 5 Oeste 0 -- -- 54
2019-08-30 09:00:00 17.5 0 Calma 4 Norte 0 -- -- 69
2019-08-30 08:00:00 15.8 0 Calma 5 Norte 0 -- -- 72
2019-08-30 07:00:00 16.3 3 Este 6 Norte 0 -- -- 68
2019-08-30 06:00:00 16.5 2 Norte 5 Norte 0 -- -- 67
2019-08-30 05:00:00 16.9 0 Calma 6 Sudeste 0 -- -- 65
2019-08-30 04:00:00 17.5 0 Calma 4 Norte 0 -- -- 62
2019-08-30 03:00:00 18.3 0 Calma 4 Este 0 -- -- 58
2019-08-30 02:00:00 19.6 2 Este 10 Norte 0 -- -- 53
2019-08-30 01:00:00 20.9 6 Nordeste 10 Este 0 -- -- 48
2019-08-30 00:00:00 21.6 7 Este 11 Sudeste 0 -- -- 46
2019-08-29 23:00:00 23.3 5 Norte 18 Norte 0 -- -- 40
2019-08-29 22:00:00 25.7 8 Nordeste 31 Sudeste 0 -- -- 36
2019-08-29 21:00:00 27.2 22 Este 40 Nordeste 0 -- -- 33
2019-08-29 20:00:00 30 6 Sudoeste 22 Oeste 0 -- -- 30
2019-08-29 19:00:00 31.1 14 Oeste 23 Oeste 0 -- -- 29
2019-08-29 18:00:00 32 12 Oeste 25 Sudoeste 0 -- -- 27
2019-08-29 17:00:00 34.8 10 Sudoeste 27 Oeste 0 -- -- 23
2019-08-29 16:00:00 33.1 10 Sudoeste 25 Oeste 0 -- -- 25
2019-08-29 15:00:00 33.2 8 Sudoeste 25 Oeste 0 -- -- 25
2019-08-29 14:00:00 31.1 6 Sudeste 13 Sudoeste 0 -- -- 30
2019-08-29 13:00:00 29.3 3 Sudeste 12 Oeste 0 -- -- 35
2019-08-29 12:00:00 27.9 6 Noroeste 13 Noroeste 0 -- -- 37
2019-08-29 11:00:00 25.5 4 Oeste 10 Noroeste 0 -- -- 45
2019-08-29 10:00:00 22.9 3 Oeste 5 Oeste 0 -- -- 54
2019-08-29 09:00:00 18.9 0 Calma 5 Norte 0 -- -- 69
2019-08-29 08:00:00 17.5 4 Norte 6 Norte 0 -- -- 72
2019-08-29 07:00:00 17.3 3 Este 5 Sudeste 0 -- -- 72
2019-08-29 06:00:00 17.7 2 Nordeste 5 Noroeste 0 -- -- 69
2019-08-29 05:00:00 18.5 2 Nordeste 6 Norte 0 -- -- 66
2019-08-29 04:00:00 19.2 3 Norte 7 Este 0 -- -- 63
2019-08-29 03:00:00 20.2 2 Este 7 Este 0 -- -- 59
2019-08-29 02:00:00 21.3 4 Sur 12 Sudoeste 0 -- -- 54
2019-08-29 01:00:00 21.5 2 Sudoeste 8 Este 0 -- -- 55
2019-08-29 00:00:00 23.6 0 Calma 7 Oeste 0 -- -- 46
2019-08-28 23:00:00 23.7 3 Sudeste 8 Sudeste 0 -- -- 46
2019-08-28 22:00:00 23.7 4 Este 9 Este 0 -- -- 46
2019-08-28 21:00:00 25.3 4 Este 8 Este 0 -- -- 41
2019-08-28 20:00:00 29.5 5 Oeste 19 Oeste 0 -- -- 33
2019-08-28 19:00:00 31.1 11 Oeste 19 Oeste 0 -- -- 28
2019-08-28 18:00:00 31.2 10 Sudoeste 26 Oeste 0 -- -- 29
2019-08-28 17:00:00 32.2 16 Sudoeste 28 Oeste 0 -- -- 29
2019-08-28 16:00:00 30.9 17 Sudoeste 29 Oeste 0 -- -- 31
2019-08-28 15:00:00 29.9 15 Sudoeste 30 Sudoeste 0 -- -- 37
2019-08-28 14:00:00 31.1 10 Sudoeste 17 Oeste 0 -- -- 30
2019-08-28 13:00:00 29.2 8 Sudoeste 14 Sudoeste 0 -- -- 32
2019-08-28 12:00:00 26.1 3 Norte 14 Oeste 0 -- -- 41
2019-08-28 11:00:00 24 6 Oeste 13 Oeste 0 -- -- 51
2019-08-28 10:00:00 21 3 Oeste 7 Oeste 0 -- -- 63
2019-08-28 09:00:00 17.6 0 Calma 5 Norte 0 -- -- 80
2019-08-28 08:00:00 15.9 4 Nordeste 6 Norte 0 -- -- 83
2019-08-28 07:00:00 15.8 2 Este 5 Norte 0 -- -- 82
2019-08-28 06:00:00 16.6 3 Norte 9 Sudeste 0 -- -- 79
2019-08-28 05:00:00 17.4 3 Norte 8 Norte 0 -- -- 74
2019-08-28 04:00:00 18.6 2 Sur 9 Este 0 -- -- 71
2019-08-28 03:00:00 17.9 3 Nordeste 7 Nordeste 0 -- -- 73
2019-08-28 02:00:00 18.7 4 Nordeste 8 Sudeste 0 -- -- 70
2019-08-28 01:00:00 19.4 3 Este 9 Norte 0 -- -- 70
2019-08-28 00:00:00 19.8 5 Nordeste 8 Nordeste 0 -- -- 70
2019-08-27 23:00:00 20.7 0 Calma 9 Norte 0 -- -- 69
2019-08-27 22:00:00 21.1 3 Nordeste 8 Sudeste 0 -- -- 65
2019-08-27 21:00:00 21.9 3 Este 13 Noroeste 0 -- -- 61
2019-08-27 20:00:00 23 8 Sudoeste 36 Sudoeste 0 -- -- 56
2019-08-27 19:00:00 24 18 Sudoeste 39 Sudoeste 0 -- -- 52
2019-08-27 18:00:00 25.8 11 Sudoeste 31 Sudeste 0 -- -- 43
2019-08-27 17:00:00 25.7 16 Sudeste 37 Este 0 -- -- 42
2019-08-27 16:00:00 29 11 Sur 27 Sur 0 -- -- 30
2019-08-27 15:00:00 28.9 8 Sur 26 Sudeste 0 -- -- 31
2019-08-27 14:00:00 26.2 13 Este 31 Este 0 -- -- 34
2019-08-27 13:00:00 28.1 10 Sudeste 23 Sur 0 -- -- 30
2019-08-27 12:00:00 26.5 3 Sudoeste 12 Oeste 0 -- -- 45
2019-08-27 11:00:00 23.7 4 Noroeste 14 Sudeste 0 -- -- 51
2019-08-27 10:00:00 19.4 11 Sudeste 15 Sudeste 0 -- -- 75
2019-08-27 09:00:00 18.2 3 Nordeste 13 Este 0.4 -- -- 81
2019-08-27 08:00:00 17.7 7 Sudeste 13 Este 0 -- -- 78
2019-08-27 07:00:00 18.2 8 Nordeste 11 Nordeste 1.2 -- -- 73
2019-08-27 06:00:00 21 4 Nordeste 9 Sudeste 0 -- -- 53
2019-08-27 05:00:00 21.4 5 Este 40 Sudoeste 0 -- -- 49
2019-08-27 04:00:00 21.8 13 Sudoeste 35 Oeste 0 -- -- 41
2019-08-27 03:00:00 20.5 4 Este 19 Oeste 0 -- -- 53
2019-08-27 02:00:00 21.6 6 Este 10 Sudoeste 0 -- -- 49
2019-08-27 01:00:00 22.6 5 Este 14 Sur 0 -- -- 44
2019-08-27 00:00:00 22.8 0 Calma 6 Noroeste 0 -- -- 46
2019-08-26 23:00:00 23.5 3 Sur 12 Sudeste 0 -- -- 41
2019-08-26 22:00:00 24.2 5 Sur 17 Sudoeste 0 -- -- 39
2019-08-26 21:00:00 25.8 12 Sudoeste 24 Sudoeste 0 -- -- 33
2019-08-26 20:00:00 28.3 8 Sur 22 Sur 0 -- -- 26
2019-08-26 19:00:00 30.6 7 Sudeste 18 Sudeste 0 -- -- 20
2019-08-26 18:00:00 30.8 4 Noroeste 13 Sudoeste 0 -- -- 20
2019-08-26 17:00:00 30.6 9 Sudoeste 16 Oeste 0 -- -- 20
2019-08-26 16:00:00 31 9 Oeste 30 Sudoeste 0 -- -- 18
2019-08-26 15:00:00 31.8 12 Sudoeste 23 Sudoeste 0 -- -- 16
2019-08-26 14:00:00 31.7 6 Oeste 16 Oeste 0 -- -- 19
2019-08-26 13:00:00 29.9 7 Oeste 12 Sudoeste 0 -- -- 29
2019-08-26 12:00:00 27.5 5 Sudoeste 10 Oeste 0 -- -- 34
2019-08-26 11:00:00 24.1 6 Oeste 9 Sudoeste 0 -- -- 42
2019-08-26 10:00:00 21.2 2 Oeste 5 Oeste 0 -- -- 52
2019-08-26 09:00:00 18 0 Calma 5 Nordeste 0 -- -- 65
2019-08-26 08:00:00 16.2 2 Sudoeste 6 Este 0 -- -- 64
2019-08-26 07:00:00 15.9 0 Calma 4 Este 0 -- -- 63
2019-08-26 06:00:00 16.5 0 Calma 6 Sudeste 0 -- -- 62
2019-08-26 05:00:00 17.6 2 Norte 6 Norte 0 -- -- 59
2019-08-26 04:00:00 18.9 2 Norte 5 Este 0 -- -- 54
2019-08-26 03:00:00 19.3 3 Este 6 Nordeste 0 -- -- 53
2019-08-26 02:00:00 20.5 3 Nordeste 7 Nordeste 0 -- -- 47
2019-08-26 01:00:00 20.6 4 Este 7 Nordeste 0 -- -- 48
2019-08-26 00:00:00 22.3 3 Oeste 10 Nordeste 0 -- -- 40
2019-08-25 23:00:00 23.4 3 Este 8 Nordeste 0 -- -- 38
2019-08-25 22:00:00 25.3 3 Nordeste 24 Sudeste 0 -- -- 34
2019-08-25 21:00:00 27.2 9 Sudeste 27 Sur 0 -- -- 31
2019-08-25 20:00:00 29.2 13 Sudoeste 26 Sur 0 -- -- 28
2019-08-25 19:00:00 32.6 12 Sudoeste 21 Sudoeste 0 -- -- 21
2019-08-25 18:00:00 34.6 10 Oeste 19 Oeste 0 -- -- 21
2019-08-25 17:00:00 34 10 Oeste 21 Oeste 0 -- -- 21
2019-08-25 16:00:00 32.3 7 Sudeste 12 Sudeste 0 -- -- 23
2019-08-25 15:00:00 31.1 8 Sudeste 13 Sudeste 0 -- -- 27
2019-08-25 14:00:00 30.6 7 Sudeste 12 Sudeste 0 -- -- 28
2019-08-25 13:00:00 30.5 6 Noroeste 13 Oeste 0 -- -- 26
2019-08-25 12:00:00 28.1 7 Oeste 13 Sudoeste 0 -- -- 34
2019-08-25 11:00:00 25.2 5 Oeste 9 Oeste 0 -- -- 41
2019-08-25 10:00:00 21.9 2 Oeste 5 Sudoeste 0 -- -- 55
2019-08-25 09:00:00 18.5 0 Calma 5 Norte 0 -- -- 67
2019-08-25 08:00:00 17.2 4 Norte 6 Norte 0 -- -- 68
2019-08-25 07:00:00 17.1 4 Norte 10 Sudeste 0 -- -- 68
2019-08-25 06:00:00 17.2 5 Sudeste 8 Sudeste 0 -- -- 67
2019-08-25 05:00:00 18.5 5 Norte 8 Norte 0 -- -- 60
2019-08-25 04:00:00 19.2 6 Sudeste 8 Sudeste 0 -- -- 58
2019-08-25 03:00:00 19.2 4 Norte 6 Norte 0 -- -- 59
2019-08-25 02:00:00 20.5 4 Este 8 Este 0 -- -- 54
2019-08-25 01:00:00 22.2 2 Noroeste 11 Sudeste 0 -- -- 49
2019-08-25 00:00:00 23.6 5 Sudeste 18 Sur 0 -- -- 42
2019-08-24 23:00:00 25 4 Este 11 Este 0 -- -- 36
2019-08-24 22:00:00 25.7 3 Este 16 Sudoeste 0 -- -- 34
2019-08-24 21:00:00 27.4 9 Sur 22 Sudoeste 0 -- -- 29
2019-08-24 20:00:00 29.6 12 Sudoeste 24 Sudoeste 0 -- -- 26
2019-08-24 19:00:00 32.6 10 Oeste 18 Oeste 0 -- -- 24
2019-08-24 18:00:00 33.8 11 Sudoeste 24 Sudoeste 0 -- -- 22
2019-08-24 17:00:00 33.8 12 Sudoeste 30 Sudoeste 0 -- -- 23
2019-08-24 16:00:00 33.1 15 Sudoeste 26 Sudoeste 0 -- -- 25
2019-08-24 15:00:00 32.8 9 Sur 26 Sudoeste 0 -- -- 26
2019-08-24 14:00:00 32.2 8 Sudoeste 19 Sudoeste 0 -- -- 27
2019-08-24 13:00:00 30.4 7 Sudoeste 14 Sudoeste 0 -- -- 31
2019-08-24 12:00:00 27.4 4 Oeste 10 Oeste 0 -- -- 38
2019-08-24 11:00:00 25 5 Oeste 9 Oeste 0 -- -- 44
2019-08-24 10:00:00 22.2 3 Oeste 6 Oeste 0 -- -- 52
2019-08-24 09:00:00 18.4 2 Nordeste 4 Nordeste 0 -- -- 66
2019-08-24 08:00:00 15.9 0 Calma 3 Este 0 -- -- 74
2019-08-24 07:00:00 16.4 3 Norte 5 Nordeste 0 -- -- 71
2019-08-24 06:00:00 16.9 0 Calma 6 Nordeste 0 -- -- 70
2019-08-24 05:00:00 17.5 3 Norte 5 Norte 0 -- -- 68
2019-08-24 04:00:00 17.9 2 Nordeste 6 Noroeste 0 -- -- 66
2019-08-24 03:00:00 19.1 0 Calma 6 Este 0 -- -- 62
2019-08-24 02:00:00 19.7 2 Este 9 Sudeste 0 -- -- 59
2019-08-24 01:00:00 20.6 3 Nordeste 5 Noroeste 0 -- -- 54
2019-08-24 00:00:00 22.4 2 Sudeste 15 Sudoeste 0 -- -- 46
2019-08-23 23:00:00 23.9 8 Sudoeste 17 Sudoeste 0 -- -- 39
2019-08-23 22:00:00 24.9 5 Este 18 Sur 0 -- -- 34
2019-08-23 21:00:00 26.6 12 Sudoeste 23 Sudoeste 0 -- -- 29
2019-08-23 20:00:00 28.5 13 Sudoeste 26 Sudoeste 0 -- -- 27
2019-08-23 19:00:00 30.7 13 Sudoeste 23 Oeste 0 -- -- 25
2019-08-23 18:00:00 32.4 12 Sudoeste 22 Sudoeste 0 -- -- 23
2019-08-23 17:00:00 32.8 9 Sudoeste 20 Sudoeste 0 -- -- 23
2019-08-23 16:00:00 33.2 10 Oeste 23 Sudoeste 0 -- -- 23
2019-08-23 15:00:00 32.2 7 Noroeste 21 Oeste 0 -- -- 21
2019-08-23 14:00:00 31.3 8 Oeste 14 Oeste 0 -- -- 22
2019-08-23 13:00:00 29.4 6 Oeste 13 Oeste 0 -- -- 27
2019-08-23 12:00:00 27.1 4 Oeste 10 Oeste 0 -- -- 35
2019-08-23 11:00:00 25.1 5 Noroeste 12 Oeste 0 -- -- 40
2019-08-23 10:00:00 22 0 Calma 4 Noroeste 0 -- -- 50
2019-08-23 09:00:00 17.9 0 Calma 5 Norte 0 -- -- 72
2019-08-23 08:00:00 16 4 Norte 6 Nordeste 0 -- -- 78
2019-08-23 07:00:00 16 3 Nordeste 6 Este 0 -- -- 76
2019-08-23 06:00:00 16.5 2 Este 3 Este 0 -- -- 75
2019-08-23 05:00:00 17.7 3 Sudeste 5 Este 0 -- -- 69
2019-08-23 04:00:00 18.2 0 Calma 6 Este 0 -- -- 70
2019-08-23 03:00:00 18.9 4 Nordeste 6 Nordeste 0 -- -- 60
2019-08-23 02:00:00 18.9 3 Nordeste 5 Nordeste 0 -- -- 64
2019-08-23 01:00:00 19.7 2 Norte 6 Nordeste 0 -- -- 58
2019-08-23 00:00:00 21.3 0 Calma 13 Este 0 -- -- 51